createdAt,value
2018-04-16T00:00:38.434Z,27.60
2018-04-16T00:03:05.921Z,31.47
2018-04-16T00:05:33.416Z,28.13
2018-04-16T00:08:00.976Z,27.43
2018-04-16T00:10:28.490Z,33.33
2018-04-16T00:12:55.992Z,27.63
2018-04-16T00:15:23.493Z,28.30
2018-04-16T00:17:50.991Z,30.50
2018-04-16T00:20:18.535Z,29.37
2018-04-16T00:22:46.036Z,35.57
2018-04-16T00:25:13.498Z,31.40
2018-04-16T00:27:40.976Z,28.17
2018-04-16T00:30:08.468Z,29.03
2018-04-16T00:32:41.488Z,31.03
2018-04-16T00:35:14.667Z,30.17
2018-04-16T00:37:47.889Z,28.80
2018-04-16T00:40:21.046Z,28.90
2018-04-16T00:42:54.215Z,29.53
2018-04-16T00:45:27.300Z,29.53
2018-04-16T00:48:00.507Z,37.60
2018-04-16T00:50:33.711Z,25.53
2018-04-16T00:53:06.842Z,32.10
2018-04-16T00:55:39.936Z,30.30
2018-04-16T00:58:13.152Z,32.53
2018-04-16T01:00:46.355Z,31.07
2018-04-16T01:03:19.585Z,28.30
2018-04-16T01:05:52.629Z,32.27
2018-04-16T01:08:25.865Z,28.50
2018-04-16T01:10:58.887Z,34.57
2018-04-16T01:13:32.168Z,33.63
2018-04-16T01:16:05.248Z,28.53
2018-04-16T01:18:38.497Z,28.60
2018-04-16T01:21:11.681Z,34.40
2018-04-16T01:23:44.929Z,30.60
2018-04-16T01:26:18.040Z,29.10
2018-04-16T01:28:51.198Z,32.67
2018-04-16T01:31:24.265Z,35.93
2018-04-16T01:33:57.532Z,34.10
2018-04-16T01:36:30.732Z,36.07
2018-04-16T01:39:03.909Z,33.93
2018-04-16T01:41:37.086Z,31.43
2018-04-16T01:44:10.191Z,31.37
2018-04-16T01:46:43.388Z,34.17
2018-04-16T01:49:16.676Z,39.80
2018-04-16T01:51:49.878Z,36.83
2018-04-16T01:54:23.037Z,33.00
2018-04-16T01:56:56.200Z,31.70
2018-04-16T01:59:29.455Z,39.30
2018-04-16T02:02:02.693Z,31.57
2018-04-16T02:04:35.759Z,32.63
2018-04-16T02:07:08.916Z,33.40
2018-04-16T02:09:42.149Z,31.77
2018-04-16T02:12:15.147Z,39.87
2018-04-16T02:14:48.285Z,37.90
2018-04-16T02:17:21.380Z,35.83
2018-04-16T02:19:54.545Z,37.83
2018-04-16T02:22:27.701Z,39.87
2018-04-16T02:25:00.913Z,37.57
2018-04-16T02:27:34.159Z,34.43
2018-04-16T02:30:07.335Z,35.83
2018-04-16T02:32:40.499Z,35.80
2018-04-16T02:35:13.706Z,38.93
2018-04-16T02:37:46.904Z,32.53
2018-04-16T02:40:19.991Z,32.97
2018-04-16T02:42:53.037Z,38.00
2018-04-16T02:45:26.111Z,36.10
2018-04-16T02:47:59.156Z,38.50
2018-04-16T02:50:32.269Z,42.60
2018-04-16T02:53:05.357Z,44.47
2018-04-16T02:55:38.578Z,34.53
2018-04-16T03:01:18.675Z,36.90
2018-04-16T03:03:51.845Z,40.23
2018-04-16T03:06:25.048Z,39.00
2018-04-16T03:08:58.135Z,37.87
2018-04-16T03:11:31.213Z,36.90
2018-04-16T03:14:04.379Z,39.97
2018-04-16T03:16:37.553Z,41.67
2018-04-16T03:19:10.653Z,40.43
2018-04-16T03:21:43.749Z,43.10
2018-04-16T03:24:16.948Z,40.70
2018-04-16T03:26:50.055Z,41.60
2018-04-16T03:29:23.304Z,40.60
2018-04-16T03:35:03.550Z,38.67
2018-04-16T03:37:36.679Z,39.43
2018-04-16T03:40:09.874Z,40.77
2018-04-16T03:42:43.032Z,39.03
2018-04-16T03:45:16.256Z,44.47
2018-04-16T03:47:49.464Z,41.13
2018-04-16T03:50:22.426Z,37.40
2018-04-16T03:52:55.651Z,53.67
2018-04-16T03:55:23.597Z,37.67
2018-04-16T03:57:51.089Z,34.63
2018-04-16T04:00:18.603Z,46.60
2018-04-16T04:02:46.063Z,41.20
2018-04-16T04:05:13.583Z,37.03
2018-04-16T04:07:41.053Z,40.17
2018-04-16T04:10:08.556Z,41.60
2018-04-16T04:12:36.138Z,43.40
2018-04-16T04:15:03.595Z,41.03
2018-04-16T04:17:31.113Z,50.27
2018-04-16T04:19:58.608Z,37.77
2018-04-16T04:22:38.028Z,41.33
2018-04-16T04:25:17.371Z,40.57
2018-04-16T04:27:56.697Z,44.53
2018-04-16T04:30:36.012Z,44.77
2018-04-16T04:33:03.491Z,35.70
2018-04-16T04:35:31.010Z,39.47
2018-04-16T04:37:58.609Z,42.27
2018-04-16T04:40:26.100Z,47.37
2018-04-16T04:42:53.609Z,37.00
2018-04-16T04:45:21.195Z,40.93
2018-04-16T04:47:48.666Z,40.10
2018-04-16T04:50:16.123Z,39.90
2018-04-16T04:52:43.651Z,43.43
2018-04-16T04:55:11.163Z,41.30
2018-04-16T04:57:38.656Z,39.60
2018-04-16T05:00:06.161Z,43.37
2018-04-16T05:02:33.615Z,39.30
2018-04-16T05:05:01.169Z,45.93
2018-04-16T05:07:28.676Z,51.53
2018-04-16T05:09:56.187Z,41.50
2018-04-16T05:12:23.656Z,38.83
2018-04-16T05:14:51.152Z,40.77
2018-04-16T05:17:18.636Z,51.60
2018-04-16T05:19:46.100Z,38.40
2018-04-16T05:22:13.635Z,42.57
2018-04-16T05:24:41.166Z,45.70
2018-04-16T05:27:08.627Z,40.50
2018-04-16T05:29:36.084Z,37.17
2018-04-16T05:32:03.562Z,43.30
2018-04-16T05:34:31.079Z,39.93
2018-04-16T05:36:58.531Z,41.33
2018-04-16T05:39:26.019Z,43.70
2018-04-16T05:41:53.509Z,51.07
2018-04-16T05:44:21.111Z,45.43
2018-04-16T05:46:48.600Z,49.37
2018-04-16T05:49:16.098Z,39.53
2018-04-16T05:51:43.570Z,45.67
2018-04-16T05:54:11.053Z,42.00
2018-04-16T05:56:38.516Z,53.27
2018-04-16T05:59:06.013Z,57.50
2018-04-16T06:01:33.510Z,42.53
2018-04-16T06:04:00.986Z,44.97
2018-04-16T06:06:28.468Z,50.87
2018-04-16T06:08:55.927Z,45.50
2018-04-16T06:11:23.472Z,58.07
2018-04-16T06:13:51.089Z,44.13
2018-04-16T06:16:18.551Z,47.77
2018-04-16T06:18:46.010Z,41.17
2018-04-16T06:21:13.517Z,42.80
2018-04-16T06:23:41.017Z,50.20
2018-04-16T06:26:08.513Z,47.90
2018-04-16T06:28:36.004Z,46.70
2018-04-16T06:31:03.503Z,41.67
2018-04-16T06:33:31.053Z,42.97
2018-04-16T06:35:58.507Z,44.20
2018-04-16T06:38:26.009Z,41.67
2018-04-16T06:40:53.499Z,37.70
2018-04-16T06:43:21.079Z,45.93
2018-04-16T06:45:48.537Z,49.97
2018-04-16T06:48:16.084Z,54.80
2018-04-16T06:50:43.633Z,52.20
2018-04-16T06:53:11.118Z,46.70
2018-04-16T06:55:38.560Z,54.43
2018-04-16T06:58:06.132Z,51.60
2018-04-16T07:00:33.613Z,50.43
2018-04-16T07:03:01.115Z,53.57
2018-04-16T07:05:28.660Z,50.37
2018-04-16T07:07:56.141Z,48.47
2018-04-16T07:10:23.647Z,46.97
2018-04-16T07:12:51.202Z,49.87
2018-04-16T07:15:18.697Z,56.10
2018-04-16T07:17:46.229Z,57.83
2018-04-16T07:20:13.783Z,65.80
2018-04-16T07:22:41.321Z,53.47
2018-04-16T07:25:08.779Z,49.13
2018-04-16T07:27:36.308Z,53.77
2018-04-16T07:30:03.764Z,58.40
2018-04-16T07:32:31.220Z,51.30
2018-04-16T07:34:58.736Z,47.30
2018-04-16T07:37:26.208Z,55.43
2018-04-16T07:39:53.682Z,57.73
2018-04-16T07:42:21.173Z,66.07
2018-04-16T07:44:48.740Z,56.87
2018-04-16T07:47:16.237Z,55.33
2018-04-16T07:49:43.766Z,51.30
2018-04-16T07:52:11.273Z,49.00
2018-04-16T07:54:38.780Z,44.23
2018-04-16T07:57:06.351Z,57.07
2018-04-16T07:59:33.820Z,47.37
2018-04-16T08:02:01.303Z,54.43
2018-04-16T08:04:28.758Z,54.43
2018-04-16T08:06:56.219Z,49.60
2018-04-16T08:09:23.724Z,52.63
2018-04-16T08:11:51.204Z,54.90
2018-04-16T08:14:18.701Z,55.23
2018-04-16T08:16:46.199Z,62.17
2018-04-16T08:19:13.693Z,51.67
2018-04-16T08:21:41.160Z,50.60
2018-04-16T08:24:08.732Z,52.13
2018-04-16T08:26:36.233Z,55.13
2018-04-16T08:29:03.701Z,57.97
2018-04-16T08:31:31.200Z,56.57
2018-04-16T08:33:58.659Z,55.63
2018-04-16T08:36:26.135Z,56.83
2018-04-16T08:38:53.603Z,57.10
2018-04-16T08:41:21.086Z,61.50
2018-04-16T08:43:48.657Z,60.77
2018-04-16T08:46:16.179Z,54.40
2018-04-16T08:48:43.667Z,58.77
2018-04-16T08:51:11.138Z,58.97
2018-04-16T08:53:38.634Z,53.43
2018-04-16T08:56:06.162Z,54.13
2018-04-16T08:58:33.656Z,49.33
2018-04-16T09:01:01.166Z,54.87
2018-04-16T09:03:28.658Z,55.87
2018-04-16T09:05:56.122Z,49.30
2018-04-16T09:08:23.635Z,51.47
2018-04-16T09:10:51.109Z,51.03
2018-04-16T09:13:18.555Z,56.80
2018-04-16T09:15:46.035Z,58.97
2018-04-16T09:18:13.500Z,55.07
2018-04-16T09:20:40.963Z,42.77
2018-04-16T09:23:08.450Z,63.10
2018-04-16T09:25:35.938Z,64.57
2018-04-16T09:28:03.489Z,67.00
2018-04-16T09:30:30.972Z,72.47
2018-04-16T09:32:58.499Z,68.97
2018-04-16T09:35:25.943Z,72.57
2018-04-16T09:37:53.450Z,59.30
2018-04-16T09:40:20.937Z,62.90
2018-04-16T09:42:48.396Z,71.33
2018-04-16T09:45:15.953Z,79.73
2018-04-16T09:47:43.414Z,76.57
2018-04-16T09:50:10.880Z,58.03
2018-04-16T09:52:38.466Z,66.50
2018-04-16T09:55:05.965Z,57.83
2018-04-16T09:57:33.451Z,57.20
2018-04-16T10:00:00.985Z,43.47
2018-04-16T10:02:28.502Z,48.07
2018-04-16T10:04:55.954Z,54.43
2018-04-16T10:07:23.412Z,48.37
2018-04-16T10:09:50.925Z,44.13
2018-04-16T10:12:18.454Z,50.07
2018-04-16T10:14:45.934Z,50.20
2018-04-16T10:17:13.424Z,49.40
2018-04-16T10:19:40.917Z,44.03
2018-04-16T10:22:08.431Z,42.73
2018-04-16T10:24:35.896Z,45.47
2018-04-16T10:27:03.394Z,46.30
2018-04-16T10:29:30.880Z,51.97
2018-04-16T10:31:58.342Z,47.07
2018-04-16T10:34:25.841Z,39.80
2018-04-16T10:36:53.337Z,49.90
2018-04-16T10:39:20.840Z,46.90
2018-04-16T10:41:48.292Z,45.20
2018-04-16T10:44:15.861Z,43.47
2018-04-16T10:46:43.357Z,51.73
2018-04-16T10:49:10.861Z,49.77
2018-04-16T10:51:38.484Z,43.73
2018-04-16T10:54:05.965Z,44.53
2018-04-16T10:56:33.494Z,42.17
2018-04-16T10:59:00.969Z,44.10
2018-04-16T11:01:28.461Z,45.30
2018-04-16T11:03:55.957Z,41.00
2018-04-16T11:06:23.484Z,41.33
2018-04-16T11:08:50.978Z,39.83
2018-04-16T11:11:18.456Z,40.30
2018-04-16T11:13:45.951Z,40.43
2018-04-16T11:16:13.441Z,45.40
2018-04-16T11:18:40.944Z,39.93
2018-04-16T11:21:08.458Z,37.40
2018-04-16T11:23:35.950Z,35.90
2018-04-16T11:26:03.487Z,36.20
2018-04-16T11:28:30.986Z,35.73
2018-04-16T11:30:58.469Z,32.83
2018-04-16T11:33:26.137Z,34.20
2018-04-16T11:35:53.600Z,43.10
2018-04-16T11:38:21.066Z,38.53
2018-04-16T11:40:48.539Z,36.80
2018-04-16T11:43:16.055Z,27.70
2018-04-16T11:45:43.622Z,27.93
2018-04-16T11:48:11.088Z,30.07
2018-04-16T11:50:38.639Z,36.70
2018-04-16T11:53:06.120Z,27.30
2018-04-16T11:55:33.661Z,37.20
2018-04-16T11:58:01.165Z,36.50
2018-04-16T12:00:28.676Z,33.80
2018-04-16T12:02:56.184Z,30.20
2018-04-16T12:05:23.689Z,31.60
2018-04-16T12:07:51.168Z,28.87
2018-04-16T12:10:18.632Z,35.50
2018-04-16T12:12:46.114Z,31.33
2018-04-16T12:15:13.624Z,28.03
2018-04-16T12:17:41.119Z,25.40
2018-04-16T12:20:08.650Z,30.33
2018-04-16T12:22:36.120Z,30.43
2018-04-16T12:25:03.580Z,38.37
2018-04-16T12:27:31.081Z,33.60
2018-04-16T12:29:58.546Z,34.60
2018-04-16T12:32:26.064Z,32.80
2018-04-16T12:34:53.573Z,36.03
2018-04-16T12:37:21.080Z,27.00
2018-04-16T12:39:48.550Z,31.53
2018-04-16T12:42:16.064Z,32.40
2018-04-16T12:44:43.524Z,25.80
2018-04-16T12:47:10.992Z,24.40
2018-04-16T12:49:38.552Z,28.37
2018-04-16T12:52:06.019Z,32.20
2018-04-16T12:54:33.468Z,31.43
2018-04-16T12:57:01.055Z,23.93
2018-04-16T12:59:28.539Z,29.97
2018-04-16T13:02:12.841Z,24.83
2018-04-16T13:04:40.392Z,31.97
2018-04-16T13:07:07.863Z,23.73
2018-04-16T13:09:35.345Z,25.90
2018-04-16T13:12:02.846Z,25.30
2018-04-16T13:14:30.312Z,27.07
2018-04-16T13:16:57.797Z,22.57
2018-04-16T13:19:25.280Z,22.57
2018-04-16T13:21:52.757Z,26.80
2018-04-16T13:24:20.361Z,26.13
2018-04-16T13:26:47.870Z,19.00
2018-04-16T13:29:15.335Z,22.23
2018-04-16T13:31:42.829Z,28.07
2018-04-16T13:34:10.283Z,30.17
2018-04-16T13:36:37.751Z,30.30
2018-04-16T13:39:05.982Z,26.10
2018-04-16T13:41:33.498Z,28.03
2018-04-16T13:44:01.072Z,28.80
2018-04-16T13:46:28.567Z,25.40
2018-04-16T13:48:56.064Z,23.70
2018-04-16T13:51:23.648Z,30.73
2018-04-16T13:53:51.161Z,26.03
2018-04-16T13:56:18.625Z,22.00
2018-04-16T13:58:46.084Z,26.20
2018-04-16T14:01:13.567Z,27.33
2018-04-16T14:03:41.076Z,26.20
2018-04-16T14:06:08.550Z,25.33
2018-04-16T14:08:36.053Z,25.77
2018-04-16T14:11:03.542Z,25.60
2018-04-16T14:13:31.008Z,32.23
2018-04-16T14:15:58.484Z,31.77
2018-04-16T14:18:25.991Z,27.00
2018-04-16T14:20:53.473Z,30.43
2018-04-16T14:23:20.931Z,27.23
2018-04-16T14:25:48.447Z,29.93
2018-04-16T14:28:15.944Z,29.90
2018-04-16T14:30:43.497Z,33.37
2018-04-16T14:33:11.055Z,29.00
2018-04-16T14:35:38.545Z,34.23
2018-04-16T14:38:06.159Z,34.40
2018-04-16T14:40:33.671Z,39.67
2018-04-16T14:43:01.199Z,39.50
2018-04-16T14:45:28.664Z,41.57
2018-04-16T14:47:56.172Z,42.30
2018-04-16T14:50:23.676Z,47.33
2018-04-16T14:52:51.152Z,43.80
2018-04-16T14:55:18.615Z,44.60
2018-04-16T14:57:46.152Z,45.47
2018-04-16T15:00:13.655Z,49.57
2018-04-16T15:02:41.142Z,45.10
2018-04-16T15:05:08.714Z,49.87
2018-04-16T15:07:36.173Z,49.20
2018-04-16T15:10:03.631Z,52.50
2018-04-16T15:12:31.167Z,55.67
2018-04-16T15:14:58.759Z,46.87
2018-04-16T15:17:26.250Z,58.53
2018-04-16T15:19:53.772Z,56.13
2018-04-16T15:22:21.283Z,52.93
2018-04-16T15:24:48.737Z,58.07
2018-04-16T15:27:16.224Z,55.27
2018-04-16T15:29:43.736Z,65.17
2018-04-16T15:32:11.247Z,65.07
2018-04-16T15:34:38.756Z,68.73
2018-04-16T15:37:06.259Z,68.97
2018-04-16T15:39:33.796Z,60.30
2018-04-16T15:42:01.226Z,66.43
2018-04-16T15:44:28.703Z,67.70
2018-04-16T15:46:56.151Z,75.27
2018-04-16T15:49:23.608Z,67.37
2018-04-16T15:51:51.108Z,68.43
2018-04-16T15:54:18.598Z,63.30
2018-04-16T15:56:46.072Z,61.53
2018-04-16T15:59:13.564Z,75.37
2018-04-16T16:01:41.019Z,68.17
2018-04-16T16:04:08.475Z,71.60
2018-04-16T16:06:36.014Z,61.27
2018-04-16T16:09:03.479Z,67.50
2018-04-16T16:11:30.996Z,70.67
2018-04-16T16:13:58.490Z,66.23
2018-04-16T16:16:26.005Z,65.43
2018-04-16T16:18:53.519Z,65.67
2018-04-16T16:21:21.021Z,69.83
2018-04-16T16:23:48.486Z,74.23
2018-04-16T16:26:16.030Z,65.53
2018-04-16T16:28:43.634Z,71.33
2018-04-16T16:31:11.124Z,67.83
2018-04-16T16:33:38.684Z,61.43
2018-04-16T16:36:06.225Z,66.47
2018-04-16T16:38:33.684Z,62.57
2018-04-16T16:41:01.133Z,64.27
2018-04-16T16:43:28.650Z,65.00
2018-04-16T16:45:56.220Z,61.83
2018-04-16T16:48:23.721Z,71.03
2018-04-16T16:50:51.238Z,63.20
2018-04-16T16:53:18.711Z,71.73
2018-04-16T16:55:46.177Z,62.97
2018-04-16T16:58:13.651Z,73.17
2018-04-16T17:00:41.134Z,67.37
2018-04-16T17:03:08.599Z,73.80
2018-04-16T17:05:36.141Z,71.30
2018-04-16T17:08:03.683Z,76.40
2018-04-16T17:10:31.198Z,73.90
2018-04-16T17:12:58.710Z,65.07
2018-04-16T17:15:26.165Z,67.97
2018-04-16T17:17:53.629Z,62.90
2018-04-16T17:20:21.216Z,59.47
2018-04-16T17:22:48.711Z,71.50
2018-04-16T17:25:16.217Z,76.17
2018-04-16T17:27:43.725Z,65.00
2018-04-16T17:30:11.214Z,65.57
2018-04-16T17:32:38.683Z,79.30
2018-04-16T17:35:06.185Z,83.17
2018-04-16T17:37:33.694Z,70.90
2018-04-16T17:40:01.356Z,64.53
2018-04-16T17:42:28.811Z,65.83
2018-04-16T17:44:56.290Z,70.13
2018-04-16T17:47:23.801Z,82.70
2018-04-16T17:49:51.269Z,65.60
2018-04-16T17:52:18.760Z,71.50
2018-04-16T17:54:46.285Z,68.13
2018-04-16T17:57:13.789Z,63.80
2018-04-16T17:59:41.335Z,66.40
2018-04-16T18:02:08.863Z,76.23
2018-04-16T18:04:36.402Z,78.97
2018-04-16T18:07:03.902Z,70.50
2018-04-16T18:09:31.414Z,69.77
2018-04-16T18:11:58.907Z,66.80
2018-04-16T18:14:26.397Z,69.83
2018-04-16T18:16:53.900Z,77.80
2018-04-16T18:19:21.379Z,65.83
2018-04-16T18:21:48.914Z,66.23
2018-04-16T18:24:16.410Z,65.40
2018-04-16T18:26:43.901Z,63.73
2018-04-16T18:29:11.428Z,63.60
2018-04-16T18:31:38.911Z,62.03
2018-04-16T18:34:06.402Z,64.70
2018-04-16T18:36:33.911Z,67.53
2018-04-16T18:39:01.435Z,68.70
2018-04-16T18:41:29.012Z,64.90
2018-04-16T18:43:56.492Z,71.90
2018-04-16T18:46:24.085Z,77.30
2018-04-16T18:48:51.588Z,75.03
2018-04-16T18:51:19.084Z,66.57
2018-04-16T18:53:46.582Z,66.33
2018-04-16T18:56:14.095Z,68.43
2018-04-16T18:58:41.579Z,72.83
2018-04-16T19:01:09.114Z,65.20
2018-04-16T19:03:36.593Z,72.27
2018-04-16T19:06:04.161Z,77.80
2018-04-16T19:08:31.695Z,72.23
2018-04-16T19:10:59.362Z,67.80
2018-04-16T19:13:26.831Z,73.23
2018-04-16T19:15:54.383Z,66.70
2018-04-16T19:18:21.845Z,75.93
2018-04-16T19:20:55.091Z,70.47
2018-04-16T19:23:22.555Z,66.33
2018-04-16T19:25:50.040Z,59.70
2018-04-16T19:28:17.499Z,75.03
2018-04-16T19:30:44.960Z,78.47
2018-04-16T19:33:18.093Z,76.23
2018-04-16T19:35:45.566Z,70.67
2018-04-16T19:38:13.024Z,65.37
2018-04-16T19:40:40.601Z,73.53
2018-04-16T19:43:08.094Z,85.93
2018-04-16T19:45:35.523Z,68.83
2018-04-16T19:48:02.997Z,59.20
2018-04-16T19:50:30.477Z,67.73
2018-04-16T19:52:58.012Z,69.20
2018-04-16T19:55:25.515Z,63.93
2018-04-16T19:57:58.651Z,70.40
2018-04-16T20:00:26.116Z,71.47
2018-04-16T20:02:59.225Z,76.70
2018-04-16T20:05:26.704Z,61.77
2018-04-16T20:07:54.159Z,63.07
2018-04-16T20:10:21.722Z,72.23
2018-04-16T20:12:49.179Z,61.13
2018-04-16T20:15:16.686Z,60.67
2018-04-16T20:17:44.220Z,61.00
2018-04-16T20:20:11.719Z,58.80
2018-04-16T20:22:39.219Z,61.30
2018-04-16T20:25:06.777Z,58.60
2018-04-16T20:27:34.277Z,59.53
2018-04-16T20:30:01.798Z,58.57
2018-04-16T20:32:29.313Z,59.83
2018-04-16T20:34:56.813Z,68.80
2018-04-16T20:37:24.352Z,67.63
2018-04-16T20:39:51.848Z,66.20
2018-04-16T20:42:19.314Z,71.87
2018-04-16T20:44:46.805Z,74.07
2018-04-16T20:47:14.321Z,72.17
2018-04-16T20:49:41.863Z,57.27
2018-04-16T20:52:09.350Z,69.00
2018-04-16T20:54:36.913Z,58.07
2018-04-16T20:57:04.432Z,66.57
2018-04-16T20:59:31.969Z,62.17
2018-04-16T21:01:59.479Z,87.17
2018-04-16T21:04:26.935Z,63.30
2018-04-16T21:06:54.396Z,68.83
2018-04-16T21:09:21.925Z,70.90
2018-04-16T21:11:49.406Z,59.37
2018-04-16T21:14:16.895Z,70.63
2018-04-16T21:16:44.390Z,69.90
2018-04-16T21:19:11.881Z,72.60
2018-04-16T21:21:39.367Z,71.67
2018-04-16T21:24:06.844Z,72.57
2018-04-16T21:26:34.340Z,74.47
2018-04-16T21:29:01.871Z,76.63
2018-04-16T21:31:29.359Z,68.33
2018-04-16T21:33:56.925Z,68.33
2018-04-16T21:36:24.403Z,69.00
2018-04-16T21:38:51.895Z,71.37
2018-04-16T21:41:19.483Z,75.67
2018-04-16T21:43:46.982Z,71.80
2018-04-16T21:46:15.118Z,73.00
2018-04-16T21:48:42.632Z,79.87
2018-04-16T21:51:10.147Z,88.20
2018-04-16T21:53:37.647Z,85.23
2018-04-16T21:56:05.165Z,75.60
2018-04-16T21:58:32.729Z,86.53
2018-04-16T22:01:00.259Z,88.73
2018-04-16T22:03:27.798Z,76.17
2018-04-16T22:05:55.266Z,85.10
2018-04-16T22:08:22.724Z,82.33
2018-04-16T22:10:50.243Z,92.10
2018-04-16T22:13:17.715Z,84.87
2018-04-16T22:15:45.221Z,76.87
2018-04-16T22:18:12.684Z,86.87
2018-04-16T22:20:40.152Z,82.00
2018-04-16T22:23:07.627Z,76.37
2018-04-16T22:25:35.095Z,87.60
2018-04-16T22:28:02.605Z,78.37
2018-04-16T22:30:30.083Z,85.57
2018-04-16T22:32:57.574Z,87.90
2018-04-16T22:35:25.031Z,94.50
2018-04-16T22:37:52.563Z,85.20
2018-04-16T22:40:20.035Z,85.93
2018-04-16T22:42:47.492Z,81.20
2018-04-16T22:45:14.968Z,79.07
2018-04-16T22:47:42.492Z,83.33
2018-04-16T22:50:09.964Z,83.83
2018-04-16T22:52:37.469Z,84.37
2018-04-16T22:55:04.992Z,87.70
2018-04-16T22:57:32.451Z,86.80
2018-04-16T22:59:59.914Z,82.53
2018-04-16T23:02:27.392Z,87.00
2018-04-16T23:04:54.923Z,82.90
2018-04-16T23:07:22.394Z,81.77
2018-04-16T23:09:49.904Z,86.80
2018-04-16T23:12:17.380Z,99.17
2018-04-16T23:14:44.913Z,77.67
2018-04-16T23:17:12.409Z,82.73
2018-04-16T23:19:39.902Z,95.30
2018-04-16T23:22:07.457Z,85.70
2018-04-16T23:24:34.919Z,82.03
2018-04-16T23:27:02.423Z,80.13
2018-04-16T23:29:29.932Z,80.90
2018-04-16T23:31:57.434Z,80.63
2018-04-16T23:34:24.953Z,68.07
2018-04-16T23:36:52.447Z,78.13
2018-04-16T23:39:19.905Z,91.20
2018-04-16T23:41:47.431Z,64.27
2018-04-16T23:44:14.892Z,63.70
2018-04-16T23:46:42.383Z,63.43
2018-04-16T23:49:09.911Z,62.57
2018-04-16T23:51:37.375Z,61.50
2018-04-16T23:54:04.861Z,67.90
2018-04-16T23:56:32.500Z,61.23
2018-04-16T23:59:00.114Z,70.83
